sensor_id;sensor_type;location;lat;lon;timestamp;temperature;humidity
47857;DHT22;33618;49.972;8.242;2023-11-22T00:01:54;6.10;99.30
47857;DHT22;33618;49.972;8.242;2023-11-22T00:04:22;6.10;99.40
47857;DHT22;33618;49.972;8.242;2023-11-22T00:06:49;6.10;99.20
47857;DHT22;33618;49.972;8.242;2023-11-22T00:09:17;6.20;99.60
47857;DHT22;33618;49.972;8.242;2023-11-22T00:11:49;6.20;99.60
47857;DHT22;33618;49.972;8.242;2023-11-22T00:14:40;6.20;99.50
47857;DHT22;33618;49.972;8.242;2023-11-22T00:17:09;6.20;99.40
47857;DHT22;33618;49.972;8.242;2023-11-22T00:19:37;6.30;99.50
47857;DHT22;33618;49.972;8.242;2023-11-22T00:22:05;6.30;98.80
47857;DHT22;33618;49.972;8.242;2023-11-22T00:24:40;6.30;98.10
47857;DHT22;33618;49.972;8.242;2023-11-22T00:27:32;6.30;97.70
47857;DHT22;33618;49.972;8.242;2023-11-22T00:29:59;6.30;98.10
47857;DHT22;33618;49.972;8.242;2023-11-22T00:32:27;6.30;97.40
47857;DHT22;33618;49.972;8.242;2023-11-22T00:34:54;6.30;97.20
47857;DHT22;33618;49.972;8.242;2023-11-22T00:37:21;6.30;97.20
47857;DHT22;33618;49.972;8.242;2023-11-22T00:40:08;6.20;97.50
47857;DHT22;33618;49.972;8.242;2023-11-22T00:42:40;6.10;97.60
47857;DHT22;33618;49.972;8.242;2023-11-22T00:45:10;6.10;97.30
47857;DHT22;33618;49.972;8.242;2023-11-22T00:47:37;6.00;98.10
47857;DHT22;33618;49.972;8.242;2023-11-22T00:50:06;5.90;97.90
47857;DHT22;33618;49.972;8.242;2023-11-22T00:52:35;5.90;98.50
47857;DHT22;33618;49.972;8.242;2023-11-22T00:55:02;5.80;98.50
47857;DHT22;33618;49.972;8.242;2023-11-22T00:57:30;5.60;99.20
47857;DHT22;33618;49.972;8.242;2023-11-22T00:59:58;5.50;99.30
47857;DHT22;33618;49.972;8.242;2023-11-22T01:02:25;5.50;99.60
47857;DHT22;33618;49.972;8.242;2023-11-22T01:04:52;5.50;99.00
47857;DHT22;33618;49.972;8.242;2023-11-22T01:07:20;5.50;98.50
47857;DHT22;33618;49.972;8.242;2023-11-22T01:09:47;5.50;99.00
47857;DHT22;33618;49.972;8.242;2023-11-22T01:12:13;5.40;99.20
47857;DHT22;33618;49.972;8.242;2023-11-22T01:14:41;5.40;99.10
47857;DHT22;33618;49.972;8.242;2023-11-22T01:17:08;5.30;99.40
47857;DHT22;33618;49.972;8.242;2023-11-22T01:19:36;5.20;99.50
47857;DHT22;33618;49.972;8.242;2023-11-22T01:22:04;5.20;99.90
47857;DHT22;33618;49.972;8.242;2023-11-22T01:24:31;5.10;99.90
47857;DHT22;33618;49.972;8.242;2023-11-22T01:26:59;5.10;99.90
47857;DHT22;33618;49.972;8.242;2023-11-22T01:29:26;5.10;99.90
47857;DHT22;33618;49.972;8.242;2023-11-22T01:31:53;5.10;99.90
47857;DHT22;33618;49.972;8.242;2023-11-22T01:34:22;5.10;99.90
47857;DHT22;33618;49.972;8.242;2023-11-22T01:36:52;5.00;99.90
47857;DHT22;33618;49.972;8.242;2023-11-22T01:39:19;5.00;99.90
47857;DHT22;33618;49.972;8.242;2023-11-22T01:41:48;5.00;99.90
47857;DHT22;33618;49.972;8.242;2023-11-22T01:44:16;4.90;99.90
47857;DHT22;33618;49.972;8.242;2023-11-22T01:46:45;4.90;99.90
47857;DHT22;33618;49.972;8.242;2023-11-22T01:49:13;4.90;99.90
47857;DHT22;33618;49.972;8.242;2023-11-22T01:51:41;4.90;99.90
47857;DHT22;33618;49.972;8.242;2023-11-22T01:54:10;4.90;99.90
47857;DHT22;33618;49.972;8.242;2023-11-22T01:56:39;4.80;99.90
47857;DHT22;33618;49.972;8.242;2023-11-22T01:59:07;4.80;99.90
47857;DHT22;33618;49.972;8.242;2023-11-22T02:01:34;4.80;99.90
47857;DHT22;33618;49.972;8.242;2023-11-22T02:04:02;4.70;99.90
47857;DHT22;33618;49.972;8.242;2023-11-22T02:06:29;4.70;99.90
47857;DHT22;33618;49.972;8.242;2023-11-22T02:08:58;4.70;99.90
47857;DHT22;33618;49.972;8.242;2023-11-22T02:11:27;4.60;99.90
47857;DHT22;33618;49.972;8.242;2023-11-22T02:13:54;4.60;99.90
47857;DHT22;33618;49.972;8.242;2023-11-22T02:16:22;4.60;99.90
47857;DHT22;33618;49.972;8.242;2023-11-22T02:18:49;4.60;99.90
47857;DHT22;33618;49.972;8.242;2023-11-22T02:21:18;4.60;99.90
47857;DHT22;33618;49.972;8.242;2023-11-22T02:23:46;4.50;99.90
47857;DHT22;33618;49.972;8.242;2023-11-22T02:26:14;4.50;99.90
47857;DHT22;33618;49.972;8.242;2023-11-22T02:28:46;4.50;99.90
47857;DHT22;33618;49.972;8.242;2023-11-22T02:31:13;4.50;99.90
47857;DHT22;33618;49.972;8.242;2023-11-22T02:33:41;4.50;99.90
47857;DHT22;33618;49.972;8.242;2023-11-22T02:36:09;4.50;99.90
47857;DHT22;33618;49.972;8.242;2023-11-22T02:38:40;4.50;99.90
47857;DHT22;33618;49.972;8.242;2023-11-22T02:41:08;4.50;99.90
47857;DHT22;33618;49.972;8.242;2023-11-22T02:43:36;4.50;99.90
47857;DHT22;33618;49.972;8.242;2023-11-22T02:46:03;4.50;99.90
47857;DHT22;33618;49.972;8.242;2023-11-22T02:48:31;4.40;99.90
47857;DHT22;33618;49.972;8.242;2023-11-22T02:51:01;4.40;99.90
47857;DHT22;33618;49.972;8.242;2023-11-22T02:53:29;4.40;99.90
47857;DHT22;33618;49.972;8.242;2023-11-22T02:56:00;4.30;99.90
47857;DHT22;33618;49.972;8.242;2023-11-22T02:58:29;4.30;99.90
47857;DHT22;33618;49.972;8.242;2023-11-22T03:00:56;4.20;99.90
47857;DHT22;33618;49.972;8.242;2023-11-22T03:03:24;4.20;99.90
47857;DHT22;33618;49.972;8.242;2023-11-22T03:05:52;4.20;99.90
47857;DHT22;33618;49.972;8.242;2023-11-22T03:08:19;4.20;99.90
47857;DHT22;33618;49.972;8.242;2023-11-22T03:10:46;4.20;99.90
47857;DHT22;33618;49.972;8.242;2023-11-22T03:13:13;4.10;99.90
47857;DHT22;33618;49.972;8.242;2023-11-22T03:15:40;4.10;99.90
47857;DHT22;33618;49.972;8.242;2023-11-22T03:18:06;4.00;99.90
47857;DHT22;33618;49.972;8.242;2023-11-22T03:20:34;4.00;99.90
47857;DHT22;33618;49.972;8.242;2023-11-22T03:23:01;4.00;99.90
47857;DHT22;33618;49.972;8.242;2023-11-22T03:25:29;3.90;99.90
47857;DHT22;33618;49.972;8.242;2023-11-22T03:27:56;3.90;99.90
47857;DHT22;33618;49.972;8.242;2023-11-22T03:30:23;3.90;99.90
47857;DHT22;33618;49.972;8.242;2023-11-22T03:32:50;3.80;99.90
47857;DHT22;33618;49.972;8.242;2023-11-22T03:35:16;3.80;99.90
47857;DHT22;33618;49.972;8.242;2023-11-22T03:37:43;3.80;99.90
47857;DHT22;33618;49.972;8.242;2023-11-22T03:40:11;3.80;99.90
47857;DHT22;33618;49.972;8.242;2023-11-22T03:42:38;3.80;99.90
47857;DHT22;33618;49.972;8.242;2023-11-22T03:45:06;3.80;99.90
47857;DHT22;33618;49.972;8.242;2023-11-22T03:47:33;3.80;99.90
47857;DHT22;33618;49.972;8.242;2023-11-22T03:50:01;3.80;99.90
47857;DHT22;33618;49.972;8.242;2023-11-22T03:52:27;3.70;99.90
47857;DHT22;33618;49.972;8.242;2023-11-22T03:54:54;3.70;99.90
47857;DHT22;33618;49.972;8.242;2023-11-22T03:57:21;3.70;99.90
47857;DHT22;33618;49.972;8.242;2023-11-22T03:59:48;3.70;99.90
47857;DHT22;33618;49.972;8.242;2023-11-22T04:02:15;3.70;99.90
47857;DHT22;33618;49.972;8.242;2023-11-22T04:04:42;3.60;99.90
47857;DHT22;33618;49.972;8.242;2023-11-22T04:07:09;3.60;99.90
47857;DHT22;33618;49.972;8.242;2023-11-22T04:09:36;3.60;99.90
47857;DHT22;33618;49.972;8.242;2023-11-22T04:12:03;3.60;99.90
47857;DHT22;33618;49.972;8.242;2023-11-22T04:14:30;3.60;99.90
47857;DHT22;33618;49.972;8.242;2023-11-22T04:16:58;3.60;99.90
47857;DHT22;33618;49.972;8.242;2023-11-22T04:19:25;3.60;99.90
47857;DHT22;33618;49.972;8.242;2023-11-22T04:21:53;3.60;99.90
47857;DHT22;33618;49.972;8.242;2023-11-22T04:24:21;3.60;99.90
47857;DHT22;33618;49.972;8.242;2023-11-22T04:26:48;3.60;99.90
47857;DHT22;33618;49.972;8.242;2023-11-22T04:29:15;3.70;99.90
47857;DHT22;33618;49.972;8.242;2023-11-22T04:31:43;3.60;99.90
47857;DHT22;33618;49.972;8.242;2023-11-22T04:34:10;3.70;99.90
47857;DHT22;33618;49.972;8.242;2023-11-22T04:36:37;3.70;99.90
47857;DHT22;33618;49.972;8.242;2023-11-22T04:39:05;3.60;99.90
47857;DHT22;33618;49.972;8.242;2023-11-22T04:41:34;3.60;99.90
47857;DHT22;33618;49.972;8.242;2023-11-22T04:44:01;3.60;99.90
47857;DHT22;33618;49.972;8.242;2023-11-22T04:46:29;3.50;99.90
47857;DHT22;33618;49.972;8.242;2023-11-22T04:48:56;3.50;99.90
47857;DHT22;33618;49.972;8.242;2023-11-22T04:51:24;3.50;99.90
47857;DHT22;33618;49.972;8.242;2023-11-22T04:53:51;3.50;99.90
47857;DHT22;33618;49.972;8.242;2023-11-22T04:56:18;3.50;99.90
47857;DHT22;33618;49.972;8.242;2023-11-22T04:58:45;3.50;99.90
47857;DHT22;33618;49.972;8.242;2023-11-22T05:01:11;3.50;99.90
47857;DHT22;33618;49.972;8.242;2023-11-22T05:03:40;3.50;99.90
47857;DHT22;33618;49.972;8.242;2023-11-22T05:06:07;3.50;99.90
47857;DHT22;33618;49.972;8.242;2023-11-22T05:08:36;3.50;99.90
47857;DHT22;33618;49.972;8.242;2023-11-22T05:11:03;3.50;99.90
47857;DHT22;33618;49.972;8.242;2023-11-22T05:13:31;3.40;99.90
47857;DHT22;33618;49.972;8.242;2023-11-22T05:15:58;3.50;99.90
47857;DHT22;33618;49.972;8.242;2023-11-22T05:18:24;3.50;99.90
47857;DHT22;33618;49.972;8.242;2023-11-22T05:20:52;3.50;99.90
47857;DHT22;33618;49.972;8.242;2023-11-22T05:23:19;3.50;99.90
47857;DHT22;33618;49.972;8.242;2023-11-22T05:25:46;3.40;99.90
47857;DHT22;33618;49.972;8.242;2023-11-22T05:28:12;3.30;99.90
47857;DHT22;33618;49.972;8.242;2023-11-22T05:30:40;3.30;99.90
47857;DHT22;33618;49.972;8.242;2023-11-22T05:33:07;3.30;99.90
47857;DHT22;33618;49.972;8.242;2023-11-22T05:35:34;3.20;99.90
47857;DHT22;33618;49.972;8.242;2023-11-22T05:38:01;3.20;99.90
47857;DHT22;33618;49.972;8.242;2023-11-22T05:40:29;3.20;99.90
47857;DHT22;33618;49.972;8.242;2023-11-22T05:42:55;3.20;99.90
47857;DHT22;33618;49.972;8.242;2023-11-22T05:45:22;3.20;99.90
47857;DHT22;33618;49.972;8.242;2023-11-22T05:47:51;3.20;99.90
47857;DHT22;33618;49.972;8.242;2023-11-22T05:50:18;3.20;99.90
47857;DHT22;33618;49.972;8.242;2023-11-22T05:52:45;3.10;99.90
47857;DHT22;33618;49.972;8.242;2023-11-22T05:55:13;3.10;99.90
47857;DHT22;33618;49.972;8.242;2023-11-22T05:57:41;3.10;99.90
47857;DHT22;33618;49.972;8.242;2023-11-22T06:00:08;3.00;99.90
47857;DHT22;33618;49.972;8.242;2023-11-22T06:02:36;3.00;99.90
47857;DHT22;33618;49.972;8.242;2023-11-22T06:05:06;3.00;99.90
47857;DHT22;33618;49.972;8.242;2023-11-22T06:07:34;2.90;99.90
47857;DHT22;33618;49.972;8.242;2023-11-22T06:10:01;2.90;99.90
47857;DHT22;33618;49.972;8.242;2023-11-22T06:12:29;3.00;99.90
47857;DHT22;33618;49.972;8.242;2023-11-22T06:14:56;3.00;99.90
47857;DHT22;33618;49.972;8.242;2023-11-22T06:17:23;3.10;99.90
47857;DHT22;33618;49.972;8.242;2023-11-22T06:19:50;3.00;99.90
47857;DHT22;33618;49.972;8.242;2023-11-22T06:22:17;2.90;99.90
47857;DHT22;33618;49.972;8.242;2023-11-22T06:24:46;2.80;99.90
47857;DHT22;33618;49.972;8.242;2023-11-22T06:27:15;2.80;99.90
47857;DHT22;33618;49.972;8.242;2023-11-22T06:29:42;2.70;99.90
47857;DHT22;33618;49.972;8.242;2023-11-22T06:32:11;2.70;99.90
47857;DHT22;33618;49.972;8.242;2023-11-22T06:34:38;2.70;99.90
47857;DHT22;33618;49.972;8.242;2023-11-22T06:37:06;2.60;99.90
47857;DHT22;33618;49.972;8.242;2023-11-22T06:39:35;2.50;99.90
47857;DHT22;33618;49.972;8.242;2023-11-22T06:42:02;2.50;99.90
47857;DHT22;33618;49.972;8.242;2023-11-22T06:44:28;2.50;99.90
47857;DHT22;33618;49.972;8.242;2023-11-22T06:46:56;2.50;99.90
47857;DHT22;33618;49.972;8.242;2023-11-22T06:49:23;2.40;99.90
47857;DHT22;33618;49.972;8.242;2023-11-22T06:51:50;2.40;99.90
47857;DHT22;33618;49.972;8.242;2023-11-22T06:54:19;2.40;99.90
47857;DHT22;33618;49.972;8.242;2023-11-22T06:56:46;2.30;99.90
47857;DHT22;33618;49.972;8.242;2023-11-22T06:59:14;2.30;99.90
47857;DHT22;33618;49.972;8.242;2023-11-22T07:01:41;2.30;99.90
47857;DHT22;33618;49.972;8.242;2023-11-22T07:04:09;2.30;99.90
47857;DHT22;33618;49.972;8.242;2023-11-22T07:06:36;2.30;99.90
47857;DHT22;33618;49.972;8.242;2023-11-22T07:09:05;2.20;99.90
47857;DHT22;33618;49.972;8.242;2023-11-22T07:11:31;2.20;99.90
47857;DHT22;33618;49.972;8.242;2023-11-22T07:13:58;2.30;99.90
47857;DHT22;33618;49.972;8.242;2023-11-22T07:16:25;2.30;99.90
47857;DHT22;33618;49.972;8.242;2023-11-22T07:18:52;2.30;99.90
47857;DHT22;33618;49.972;8.242;2023-11-22T07:21:19;2.30;99.90
47857;DHT22;33618;49.972;8.242;2023-11-22T07:23:47;2.30;99.90
47857;DHT22;33618;49.972;8.242;2023-11-22T07:26:17;2.30;99.90
47857;DHT22;33618;49.972;8.242;2023-11-22T07:28:45;2.30;99.90
47857;DHT22;33618;49.972;8.242;2023-11-22T07:31:12;2.30;99.90
47857;DHT22;33618;49.972;8.242;2023-11-22T07:33:39;2.30;99.90
47857;DHT22;33618;49.972;8.242;2023-11-22T07:36:06;2.30;99.90
47857;DHT22;33618;49.972;8.242;2023-11-22T07:38:34;2.40;99.90
47857;DHT22;33618;49.972;8.242;2023-11-22T07:41:03;2.40;99.90
47857;DHT22;33618;49.972;8.242;2023-11-22T07:43:29;2.30;99.90
47857;DHT22;33618;49.972;8.242;2023-11-22T07:45:57;2.40;99.90
47857;DHT22;33618;49.972;8.242;2023-11-22T07:48:26;2.40;99.90
47857;DHT22;33618;49.972;8.242;2023-11-22T07:50:53;2.40;99.90
47857;DHT22;33618;49.972;8.242;2023-11-22T07:53:21;2.40;99.90
47857;DHT22;33618;49.972;8.242;2023-11-22T07:55:48;2.40;99.90
47857;DHT22;33618;49.972;8.242;2023-11-22T07:58:14;2.30;99.90
47857;DHT22;33618;49.972;8.242;2023-11-22T08:00:42;2.40;99.90
47857;DHT22;33618;49.972;8.242;2023-11-22T08:03:09;2.50;99.40
47857;DHT22;33618;49.972;8.242;2023-11-22T08:05:36;2.50;99.20
47857;DHT22;33618;49.972;8.242;2023-11-22T08:08:06;2.60;99.00
47857;DHT22;33618;49.972;8.242;2023-11-22T08:10:35;2.60;98.50
47857;DHT22;33618;49.972;8.242;2023-11-22T08:13:02;2.60;98.10
47857;DHT22;33618;49.972;8.242;2023-11-22T08:15:30;2.70;97.60
47857;DHT22;33618;49.972;8.242;2023-11-22T08:17:58;2.70;97.30
47857;DHT22;33618;49.972;8.242;2023-11-22T08:20:27;2.70;97.30
47857;DHT22;33618;49.972;8.242;2023-11-22T08:22:54;2.70;97.60
47857;DHT22;33618;49.972;8.242;2023-11-22T08:25:21;2.70;97.30
47857;DHT22;33618;49.972;8.242;2023-11-22T08:27:48;2.70;97.10
47857;DHT22;33618;49.972;8.242;2023-11-22T08:30:16;2.80;96.50
47857;DHT22;33618;49.972;8.242;2023-11-22T08:32:47;2.90;96.10
47857;DHT22;33618;49.972;8.242;2023-11-22T08:35:24;2.80;96.00
47857;DHT22;33618;49.972;8.242;2023-11-22T08:37:51;2.90;96.00
47857;DHT22;33618;49.972;8.242;2023-11-22T08:40:18;2.80;96.10
47857;DHT22;33618;49.972;8.242;2023-11-22T08:42:49;2.90;95.80
47857;DHT22;33618;49.972;8.242;2023-11-22T08:45:16;2.90;95.80
47857;DHT22;33618;49.972;8.242;2023-11-22T08:47:43;2.90;95.40
47857;DHT22;33618;49.972;8.242;2023-11-22T08:50:10;2.90;95.10
47857;DHT22;33618;49.972;8.242;2023-11-22T08:52:42;2.90;95.20
47857;DHT22;33618;49.972;8.242;2023-11-22T08:55:09;3.00;95.70
47857;DHT22;33618;49.972;8.242;2023-11-22T08:57:37;3.00;95.40
47857;DHT22;33618;49.972;8.242;2023-11-22T09:00:04;3.00;94.90
47857;DHT22;33618;49.972;8.242;2023-11-22T09:02:36;3.00;95.00
47857;DHT22;33618;49.972;8.242;2023-11-22T09:05:04;3.10;94.90
47857;DHT22;33618;49.972;8.242;2023-11-22T09:07:35;3.10;94.60
47857;DHT22;33618;49.972;8.242;2023-11-22T09:10:03;3.20;94.50
47857;DHT22;33618;49.972;8.242;2023-11-22T09:12:37;3.40;94.60
47857;DHT22;33618;49.972;8.242;2023-11-22T09:15:12;3.60;94.40
47857;DHT22;33618;49.972;8.242;2023-11-22T09:17:45;3.70;93.80
47857;DHT22;33618;49.972;8.242;2023-11-22T09:20:14;3.80;93.60
47857;DHT22;33618;49.972;8.242;2023-11-22T09:22:43;3.90;93.70
47857;DHT22;33618;49.972;8.242;2023-11-22T09:25:17;4.00;93.20
47857;DHT22;33618;49.972;8.242;2023-11-22T09:27:47;4.10;92.60
47857;DHT22;33618;49.972;8.242;2023-11-22T09:30:16;4.20;92.50
47857;DHT22;33618;49.972;8.242;2023-11-22T09:33:27;4.20;92.40
47857;DHT22;33618;49.972;8.242;2023-11-22T09:35:54;4.30;92.30
47857;DHT22;33618;49.972;8.242;2023-11-22T09:38:21;4.30;92.20
47857;DHT22;33618;49.972;8.242;2023-11-22T09:40:49;4.40;92.30
47857;DHT22;33618;49.972;8.242;2023-11-22T09:43:18;4.30;91.70
47857;DHT22;33618;49.972;8.242;2023-11-22T09:45:50;4.20;91.80
47857;DHT22;33618;49.972;8.242;2023-11-22T09:48:24;4.30;91.90
47857;DHT22;33618;49.972;8.242;2023-11-22T09:53:33;4.30;91.40
47857;DHT22;33618;49.972;8.242;2023-11-22T09:56:02;4.30;91.00
47857;DHT22;33618;49.972;8.242;2023-11-22T09:58:30;4.30;90.60
47857;DHT22;33618;49.972;8.242;2023-11-22T10:01:00;4.20;90.50
47857;DHT22;33618;49.972;8.242;2023-11-22T10:03:27;4.20;90.70
47857;DHT22;33618;49.972;8.242;2023-11-22T10:05:58;4.30;90.20
47857;DHT22;33618;49.972;8.242;2023-11-22T10:08:26;4.40;90.40
47857;DHT22;33618;49.972;8.242;2023-11-22T10:10:57;4.50;90.20
47857;DHT22;33618;49.972;8.242;2023-11-22T10:13:25;4.70;90.60
47857;DHT22;33618;49.972;8.242;2023-11-22T10:15:53;4.70;89.90
47857;DHT22;33618;49.972;8.242;2023-11-22T10:18:20;4.90;89.70
47857;DHT22;33618;49.972;8.242;2023-11-22T10:20:49;5.00;89.10
47857;DHT22;33618;49.972;8.242;2023-11-22T10:23:19;5.00;89.00
47857;DHT22;33618;49.972;8.242;2023-11-22T10:25:53;5.20;88.20
47857;DHT22;33618;49.972;8.242;2023-11-22T10:28:20;5.30;88.70
47857;DHT22;33618;49.972;8.242;2023-11-22T10:30:50;5.40;88.00
47857;DHT22;33618;49.972;8.242;2023-11-22T10:33:18;5.50;87.80
47857;DHT22;33618;49.972;8.242;2023-11-22T10:35:50;5.60;87.40
47857;DHT22;33618;49.972;8.242;2023-11-22T10:38:21;5.80;87.20
47857;DHT22;33618;49.972;8.242;2023-11-22T10:40:48;6.10;87.00
47857;DHT22;33618;49.972;8.242;2023-11-22T10:43:16;6.50;85.90
47857;DHT22;33618;49.972;8.242;2023-11-22T10:45:44;6.70;85.40
47857;DHT22;33618;49.972;8.242;2023-11-22T10:48:17;7.00;83.80
47857;DHT22;33618;49.972;8.242;2023-11-22T10:50:45;7.30;84.00
47857;DHT22;33618;49.972;8.242;2023-11-22T10:53:15;7.40;83.30
47857;DHT22;33618;49.972;8.242;2023-11-22T10:55:45;7.60;83.00
47857;DHT22;33618;49.972;8.242;2023-11-22T10:58:18;7.90;82.10
47857;DHT22;33618;49.972;8.242;2023-11-22T11:00:46;8.10;82.10
47857;DHT22;33618;49.972;8.242;2023-11-22T11:03:17;8.30;81.10
47857;DHT22;33618;49.972;8.242;2023-11-22T11:06:05;8.50;81.50
47857;DHT22;33618;49.972;8.242;2023-11-22T11:08:37;8.80;81.00
47857;DHT22;33618;49.972;8.242;2023-11-22T11:11:05;9.00;80.10
47857;DHT22;33618;49.972;8.242;2023-11-22T11:13:32;9.30;80.80
47857;DHT22;33618;49.972;8.242;2023-11-22T11:16:00;9.40;79.80
47857;DHT22;33618;49.972;8.242;2023-11-22T11:18:28;9.50;79.40
47857;DHT22;33618;49.972;8.242;2023-11-22T11:20:56;9.70;79.40
47857;DHT22;33618;49.972;8.242;2023-11-22T11:23:26;9.90;78.60
47857;DHT22;33618;49.972;8.242;2023-11-22T11:25:56;9.90;78.80
47857;DHT22;33618;49.972;8.242;2023-11-22T11:28:24;9.60;78.50
47857;DHT22;33618;49.972;8.242;2023-11-22T11:30:54;9.50;79.80
47857;DHT22;33618;49.972;8.242;2023-11-22T11:33:33;9.60;79.20
47857;DHT22;33618;49.972;8.242;2023-11-22T11:36:03;9.80;77.60
47857;DHT22;33618;49.972;8.242;2023-11-22T11:38:34;10.10;76.80
47857;DHT22;33618;49.972;8.242;2023-11-22T11:41:11;10.20;77.00
47857;DHT22;33618;49.972;8.242;2023-11-22T11:46:09;10.40;77.40
47857;DHT22;33618;49.972;8.242;2023-11-22T11:48:36;10.30;77.20
47857;DHT22;33618;49.972;8.242;2023-11-22T11:51:03;10.20;77.20
47857;DHT22;33618;49.972;8.242;2023-11-22T11:53:30;9.80;77.20
47857;DHT22;33618;49.972;8.242;2023-11-22T11:55:58;9.20;77.90
47857;DHT22;33618;49.972;8.242;2023-11-22T11:58:25;8.90;77.90
47857;DHT22;33618;49.972;8.242;2023-11-22T12:00:52;8.50;78.40
47857;DHT22;33618;49.972;8.242;2023-11-22T12:03:21;8.70;79.60
47857;DHT22;33618;49.972;8.242;2023-11-22T12:05:49;9.30;78.60
47857;DHT22;33618;49.972;8.242;2023-11-22T12:08:17;9.70;78.10
47857;DHT22;33618;49.972;8.242;2023-11-22T12:10:46;10.00;77.60
47857;DHT22;33618;49.972;8.242;2023-11-22T12:13:20;10.10;76.40
47857;DHT22;33618;49.972;8.242;2023-11-22T12:15:48;10.10;76.40
47857;DHT22;33618;49.972;8.242;2023-11-22T12:18:15;10.00;77.70
47857;DHT22;33618;49.972;8.242;2023-11-22T12:20:57;10.10;77.90
47857;DHT22;33618;49.972;8.242;2023-11-22T12:23:25;10.20;76.80
47857;DHT22;33618;49.972;8.242;2023-11-22T12:25:57;10.10;76.30
47857;DHT22;33618;49.972;8.242;2023-11-22T12:28:28;10.10;75.70
47857;DHT22;33618;49.972;8.242;2023-11-22T12:31:05;9.80;76.40
47857;DHT22;33618;49.972;8.242;2023-11-22T12:33:32;9.70;76.00
47857;DHT22;33618;49.972;8.242;2023-11-22T12:36:00;9.40;76.80
47857;DHT22;33618;49.972;8.242;2023-11-22T12:38:28;9.00;77.50
47857;DHT22;33618;49.972;8.242;2023-11-22T12:40:59;8.80;78.30
47857;DHT22;33618;49.972;8.242;2023-11-22T12:43:26;8.60;78.50
47857;DHT22;33618;49.972;8.242;2023-11-22T12:46:04;8.70;78.70
47857;DHT22;33618;49.972;8.242;2023-11-22T12:48:34;8.90;77.20
47857;DHT22;33618;49.972;8.242;2023-11-22T12:51:02;8.90;78.20
47857;DHT22;33618;49.972;8.242;2023-11-22T12:53:29;9.20;77.60
47857;DHT22;33618;49.972;8.242;2023-11-22T12:55:57;9.40;78.00
47857;DHT22;33618;49.972;8.242;2023-11-22T12:58:25;9.50;77.60
47857;DHT22;33618;49.972;8.242;2023-11-22T13:00:54;9.70;77.10
47857;DHT22;33618;49.972;8.242;2023-11-22T13:03:25;9.80;76.50
47857;DHT22;33618;49.972;8.242;2023-11-22T13:05:53;9.90;75.90
47857;DHT22;33618;49.972;8.242;2023-11-22T13:08:20;10.00;75.30
47857;DHT22;33618;49.972;8.242;2023-11-22T13:10:50;10.00;76.00
47857;DHT22;33618;49.972;8.242;2023-11-22T13:13:26;9.80;76.30
47857;DHT22;33618;49.972;8.242;2023-11-22T13:15:54;9.60;75.20
47857;DHT22;33618;49.972;8.242;2023-11-22T13:18:21;9.60;77.10
47857;DHT22;33618;49.972;8.242;2023-11-22T13:20:48;9.40;76.10
47857;DHT22;33618;49.972;8.242;2023-11-22T13:23:17;9.80;76.90
47857;DHT22;33618;49.972;8.242;2023-11-22T13:25:44;10.00;76.10
47857;DHT22;33618;49.972;8.242;2023-11-22T13:28:13;10.10;75.70
47857;DHT22;33618;49.972;8.242;2023-11-22T13:30:43;9.80;74.70
47857;DHT22;33618;49.972;8.242;2023-11-22T13:33:10;9.50;75.50
47857;DHT22;33618;49.972;8.242;2023-11-22T13:35:38;9.40;76.20
47857;DHT22;33618;49.972;8.242;2023-11-22T13:38:05;9.40;76.80
47857;DHT22;33618;49.972;8.242;2023-11-22T13:40:38;9.40;76.70
47857;DHT22;33618;49.972;8.242;2023-11-22T13:43:07;9.60;76.50
47857;DHT22;33618;49.972;8.242;2023-11-22T13:45:35;9.60;76.50
47857;DHT22;33618;49.972;8.242;2023-11-22T13:48:04;9.50;75.60
47857;DHT22;33618;49.972;8.242;2023-11-22T13:50:33;9.40;76.10
47857;DHT22;33618;49.972;8.242;2023-11-22T13:53:01;9.80;77.00
47857;DHT22;33618;49.972;8.242;2023-11-22T13:55:30;10.10;76.40
47857;DHT22;33618;49.972;8.242;2023-11-22T13:57:59;9.80;75.00
47857;DHT22;33618;49.972;8.242;2023-11-22T14:00:30;9.90;75.70
47857;DHT22;33618;49.972;8.242;2023-11-22T14:03:02;9.70;74.70
47857;DHT22;33618;49.972;8.242;2023-11-22T14:05:36;9.60;75.50
47857;DHT22;33618;49.972;8.242;2023-11-22T14:08:05;9.40;76.00
47857;DHT22;33618;49.972;8.242;2023-11-22T14:10:35;9.60;76.60
47857;DHT22;33618;49.972;8.242;2023-11-22T14:13:02;9.90;76.40
47857;DHT22;33618;49.972;8.242;2023-11-22T14:15:30;10.00;75.70
47857;DHT22;33618;49.972;8.242;2023-11-22T14:17:58;9.60;76.50
47857;DHT22;33618;49.972;8.242;2023-11-22T14:20:25;9.10;76.00
47857;DHT22;33618;49.972;8.242;2023-11-22T14:22:52;8.40;76.70
47857;DHT22;33618;49.972;8.242;2023-11-22T14:25:19;8.30;78.30
47857;DHT22;33618;49.972;8.242;2023-11-22T14:27:47;7.90;77.20
47857;DHT22;33618;49.972;8.242;2023-11-22T14:30:20;7.70;78.10
47857;DHT22;33618;49.972;8.242;2023-11-22T14:32:48;8.20;79.30
47857;DHT22;33618;49.972;8.242;2023-11-22T14:35:18;8.60;77.90
47857;DHT22;33618;49.972;8.242;2023-11-22T14:37:45;8.80;78.40
47857;DHT22;33618;49.972;8.242;2023-11-22T14:40:12;9.00;77.30
47857;DHT22;33618;49.972;8.242;2023-11-22T14:42:44;8.90;76.40
47857;DHT22;33618;49.972;8.242;2023-11-22T14:45:19;8.60;76.20
47857;DHT22;33618;49.972;8.242;2023-11-22T14:47:47;8.60;77.40
47857;DHT22;33618;49.972;8.242;2023-11-22T14:50:14;8.70;78.40
47857;DHT22;33618;49.972;8.242;2023-11-22T14:52:42;8.70;78.90
47857;DHT22;33618;49.972;8.242;2023-11-22T14:55:11;8.60;79.00
47857;DHT22;33618;49.972;8.242;2023-11-22T14:57:39;8.50;77.60
47857;DHT22;33618;49.972;8.242;2023-11-22T15:00:06;8.50;77.90
47857;DHT22;33618;49.972;8.242;2023-11-22T15:02:36;8.20;78.00
47857;DHT22;33618;49.972;8.242;2023-11-22T15:05:03;8.10;79.50
47857;DHT22;33618;49.972;8.242;2023-11-22T15:07:38;8.00;78.00
47857;DHT22;33618;49.972;8.242;2023-11-22T15:10:09;7.70;80.20
47857;DHT22;33618;49.972;8.242;2023-11-22T15:12:37;7.60;79.70
47857;DHT22;33618;49.972;8.242;2023-11-22T15:15:06;7.50;80.20
47857;DHT22;33618;49.972;8.242;2023-11-22T15:17:34;7.10;81.20
47857;DHT22;33618;49.972;8.242;2023-11-22T15:20:01;6.90;81.00
47857;DHT22;33618;49.972;8.242;2023-11-22T15:22:28;6.50;82.20
47857;DHT22;33618;49.972;8.242;2023-11-22T15:24:55;6.20;81.70
47857;DHT22;33618;49.972;8.242;2023-11-22T15:27:22;6.00;83.80
47857;DHT22;33618;49.972;8.242;2023-11-22T15:29:49;5.80;83.30
47857;DHT22;33618;49.972;8.242;2023-11-22T15:32:15;5.60;85.00
47857;DHT22;33618;49.972;8.242;2023-11-22T15:34:42;5.50;85.10
47857;DHT22;33618;49.972;8.242;2023-11-22T15:37:12;5.30;84.40
47857;DHT22;33618;49.972;8.242;2023-11-22T15:39:39;5.20;86.30
47857;DHT22;33618;49.972;8.242;2023-11-22T15:42:06;5.10;85.20
47857;DHT22;33618;49.972;8.242;2023-11-22T15:44:33;5.00;86.90
47857;DHT22;33618;49.972;8.242;2023-11-22T15:47:00;5.00;87.50
47857;DHT22;33618;49.972;8.242;2023-11-22T15:49:31;4.90;86.80
47857;DHT22;33618;49.972;8.242;2023-11-22T15:51:59;4.70;86.70
47857;DHT22;33618;49.972;8.242;2023-11-22T15:54:26;4.70;86.30
47857;DHT22;33618;49.972;8.242;2023-11-22T15:56:53;4.60;87.10
47857;DHT22;33618;49.972;8.242;2023-11-22T15:59:20;4.60;88.20